Logo AVAMET
Benvolgut visitant, si us plau, ingressa Recuperar contrasenya
AVAMET paisatges

Sumacàrcer

Dades diàries. Acumulats / Últims 30 dies disponibles

Data Temperatura (°C) Humitat rel. (%) Pressió rel. (hPa) Vent (km/h) Precipitació
Mínima Mitjana Màxima Amplitud
tèrmica
Mínima Mitjana Màxima Mínima Mitjana Màxima Predom. Mitjana Ràfega
màxima
Total
(mm)
Índex-n
Mínima Mitjana Màxima Mínima Mitjana Màxima n
0 a 1
P0 max
mm 5'
Dades mensuals acumulades fins l'últim dia disponible
09/2020 18,3 19,9 23,3 25,1 24,8 31,3 35,3 17,0 24 64 96 1.010 1.018 1.026   4,3 51,8 7,7
Dades anuals acumulades fins l'últim dia disponible
2020 4,1 15,7 25,6 20,6 8,6 26,8 42,2 38,1 20 69 100 1.001 1.018 1.035   4,5 70,3 568,6
Últims 30 dies disponibles
25-09-2020 20,2     24,0     27,9 7,7 24 43 60 1.013 1.016 1.021 ONO 10,4 51,8 0,0
24-09-2020 20,3     26,0     31,7 11,4 44 60 75 1.012 1.014 1.015 O 4,9 37,0 0,0
23-09-2020 21,1     25,9     32,5 11,4 37 61 84 1.010 1.013 1.014 NO 2,6 18,5 0,0
22-09-2020 18,9     25,0     33,4 14,5 33 60 86 1.011 1.014 1.017 NO 4,2 27,8 0,0
21-09-2020 18,7     25,0     32,7 14,0 33 58 83 1.014 1.016 1.017 NO 2,9 24,1 0,0
20-09-2020 18,3     25,2     30,9 12,6 38 62 85 1.015 1.017 1.018 O 4,8 38,9 0,0
19-09-2020 18,3     24,3     31,0 12,7 38 66 93 1.014 1.016 1.017 ONO 4,5 33,3 0,0
18-09-2020 19,4     23,3     27,3 7,9 69 83 96 1.014 1.016 1.018 OSO 2,9 18,5 7,0 0,29 0,70
17-09-2020 23,3     26,1     31,9 8,6 56 71 86 1.014 1.016 1.018 N 3,1 24,1 0,0
16-09-2020 20,9     26,4     33,7 12,8 45 66 87 1.016 1.019 1.021 N 4,6 24,1 0,0
15-09-2020 22,4     26,7     33,8 11,4 43 67 90 1.019 1.021 1.024 NE 3,7 24,1 0,5
14-09-2020 19,8     25,3     31,7 11,9 49 66 82 1.021 1.023 1.024 N 4,3 25,9 0,0
13-09-2020 20,3     26,1     33,1 12,8 39 61 83 1.022 1.023 1.024 NNE 4,5 24,1 0,0
12-09-2020 20,8     26,4     33,7 12,9 45 62 78 1.016 1.018 1.022 N 5,0 27,8 0,0
11-09-2020 19,3     26,7     35,3 16,0 36 57 78 1.012 1.015 1.017 NNE 4,1 27,8 0,0
10-09-2020 18,6     24,4     30,7 12,1 45 65 84 1.015 1.019 1.021 ENE 3,8 18,5 0,0
09-09-2020 19,5     23,6     29,3 9,8 51 66 80 1.019 1.021 1.023 NNE 4,2 24,1 0,0
08-09-2020 18,3     22,7     28,1 9,8 37 65 93 1.022 1.023 1.024 NE 3,9 24,1 0,2
07-09-2020 20,4     23,1     24,8 4,4 58 73 87 1.015 1.018 1.022 NE 4,0 27,8 0,0
06-09-2020 19,5     25,5     32,4 12,9 49 69 88 1.014 1.017 1.019 NNE 4,1 25,9 0,0
05-09-2020 19,3     25,2     32,1 12,8 42 64 85 1.017 1.020 1.023 NNE 4,0 25,9 0,0
04-09-2020 19,1     25,1     32,0 12,9 48 65 82 1.022 1.024 1.026 NNE 4,2 27,8 0,0
03-09-2020 20,4     25,9     32,1 11,7 43 65 86 1.020 1.021 1.024 ENE 3,9 24,1 0,0
02-09-2020 20,8     25,4     30,6 9,8 52 68 84 1.014 1.016 1.019 NE 3,7 29,6 0,0
01-09-2020 18,6     23,7     29,0 10,4 53 66 79 1.011 1.014 1.017 NNE 4,0 27,8 0,0
31-08-2020 16,7     23,6     30,5 13,8 34 56 78 1.015 1.018 1.021 NE 3,8 20,4 0,0
30-08-2020 17,2     22,6     28,5 11,3 38 59 79 1.010 1.013 1.018 ONO 4,7 27,8 0,0
29-08-2020 20,9     25,1     28,9 8,0 57 75 92 1.003 1.005 1.010 ENE 4,3 33,3 0,2
28-08-2020 23,0     28,4     35,9 12,9 49 71 92 1.002 1.007 1.013 NE 3,8 27,8 0,0
27-08-2020 23,3     28,6     35,6 12,3 50 71 91 1.013 1.016 1.019 NE 5,0 29,6 0,0
Últims 13 mesos disponibles
08/2020 16,7 22,8 25,6 28,4 28,5 35,1 42,2 25,5 47 66 78 1.005 1.014 1.019 NNE 4,8 48,1 18,4
07/2020 18,7 22,5 24,6 27,6 29,7 33,6 42,1 23,4 52 69 83 1.011 1.016 1.020 NNE 4,6 35,1 18,7
06/2020 15,6 19,0 23,4 24,8 24,2 31,7 37,4 21,8 42 65 84 1.006 1.015 1.021 NE 5,2 46,3 34,6
05/2020 11,4 16,4 20,1 22,1 20,3 28,8 34,3 22,9 52 67 84 1.005 1.017 1.028 NNE 4,6 50,0 24,8
04/2020 8,3 12,9 18,7 16,7 16,6 21,9 27,4 19,1 52 75 97 1.006 1.016 1.026 NNE 3,7 40,7 52,0
03/2020 6,2 11,0 18,1 14,7 10,4 19,3 29,7 23,5 46 72 94 1.007 1.018 1.027 NO 4,9 70,3 164,5
02/2020 6,2 10,0 14,3 15,3 14,6 22,7 28,2 22,0 51 68 91 1.014 1.026 1.033 NO 4,3 48,1 4,0
01/2020 4,1 7,3 13,5 11,2 8,6 17,0 20,4 16,3 58 75 95 1.016 1.026 1.033 NO 3,8 55,5 243,9
12/2019 5,8 10,6 17,2 14,0 12,3 18,5 25,8 20,0 53 73 95 1.002 1.019 1.033 NO 5,4 66,6 107,9
11/2019 5,1 12,0 21,1 16,0 16,2 20,4 28,4 23,3 45 61 82 999 1.012 1.019 ONO 6,1 57,4 4,5
10/2019 10,8 15,8 20,5 20,7 16,7 27,1 35,6 24,8 45 67 86 1.010 1.018 1.023 NO 3,7 38,9 31,7
09/2019 15,9 20,2 23,9 24,5 21,9 30,0 37,3 21,4 45 71 88 1.011 1.019 1.026 NE 4,5 42,5 117,7
08/2019 18,2 22,5 28,8 27,9 28,6 34,6 43,3 25,1 51 66 78 1.011 1.016 1.021 NE 4,7 51,8 15,2
Tots els anys disponibles
2019 1,9 14,3 28,8 19,4 12,3 25,5 43,3 41,4 38 64 97 997 1.018 1.035 NE 5,0 70,3 479,5
2018 2,4 14,5 26,1 19,1 8,7 25,0 40,6 38,2 36 67 96 994 1.017 1.036 O 5,0 70,8 550,3
2017 -0,1 14,2 26,2 19,3 7,8 25,2 40,4 40,5 31 62 90 998 1.019 1.037 OSO 1,9 85,3 365,8
2016 2,6 14,7 26,2 19,9 11,7 25,1 42,7 40,1 32 62 94 996 1.018 1.038 80,0 673,0
2015 1,5 14,6 26,8 20,0 8,9 25,3 44,8 43,3 31 62 88 997 1.019 1.042 91,0 500,7
2014 3,1 15,0 25,4 20,3 11,4 25,7 42,8 39,7 33 60 90 994 1.017 1.035 80,0 379,4
2013 1,6 13,1 24,2 18,8 9,8 24,6 37,5 35,9 25 58 93 992 1.017 1.037 74,0 565,9
2012 -2,6 12,3 23,4 18,8 1,4 25,4 42,4 45,0 34 62 99 999 1.017 1.036 63,0 545,0
2011 -2,4 13,2 23,3 19,3 8,0 25,3 41,7 44,1 39 70 100 999 1.017 1.034 NE 74,0 607,1
2010 -3,0 12,3 24,0 18,1 5,0 23,9 43,5 36 68 98 991 1.014 1.030 NE 93,5 592,1
2009 -0,1 14,2 24,7 19,9 5,1 25,5 44,3 44,4 26 61 99 994 1.018 1.042 NE 78,3 714,0
2008 3,1 13,8 24,8 19,2 8,3 24,5 41,2 38,1 29 64 100 998 1.018 1.037 N 72,0 908,0
2007 1,8 14,0 24,1 19,4 7,5 24,7 40,4 38,6 29 63 100 999 1.017 1.036 NE 55,4 880,0
2006 -0,6 14,6 24,6 20,1 4,7 25,5 40,2 40,8 35 64 100 995 1.017 1.034 NE 52,2 318,0
2005 -2,7 13,4 25,0 19,1 6,0 24,8 40,4 43,1 29 62 99 1.001 1.018 1.042 NE 52,9 233,0
2004 1,4 14,0 24,5 19,5 8,6 24,9 39,8 38,4 31 65 100 994 1.017 1.034 NE 48,6 589,0
2003 1,2 9,8 21,3 20,0 20,0 31,8 42,9 41,7 46 60 69 1.008 1.018 1.028 63,7 568,0
Temperatura (°C)
Humitat relativa (%)
Velocitat del vent i ràfega màxima (km/h)
Direcció del vent (°)
Pressió (hPa)
Precipitació (mm)
Nota sobre les dades: s'avisa a l'usuari de la provisionalitat i no oficialitat d'aquestes dades
Logo AVAMET blanc
Web allotjada a Sollutia
Llicència de Creative CommonsLa web d'AVAMET i els seus continguts estan subjectes a una llicència de
Reconeixement - No Comercial - Compartir igual
Últimes estacions: Monteagudo del Castillo - El Portero (Limítrofe-Terol/Soci), Llocnou d'en Fenollet - El Molló (Soci), Castelló de la Plana - Grup Sant Agustí (Soci), Llíria - Urb. San Gerardo (Soci), Xàtiva - Ausiàs March (Soci), Gandia - Parpalló/Borrell (AVAMET), Olocau del Rei - La Magdalena (Electra/Soci), Ademuz - IES Ademuz (Soci), La Jana (Ajuntament Soci), - - -